sensor_id;sensor_type;location;lat;lon;timestamp;pressure;altitude;pressure_sealevel;temperature;humidity
68634;BME280;55625;47.072;22.192;2023-12-22T00:00:01;97445.94;;;4.14;100.00
68634;BME280;55625;47.072;22.192;2023-12-22T00:02:27;97432.84;;;4.20;100.00
68634;BME280;55625;47.072;22.192;2023-12-22T00:04:54;97421.63;;;4.11;100.00
68634;BME280;55625;47.072;22.192;2023-12-22T00:07:20;97415.53;;;4.12;100.00
68634;BME280;55625;47.072;22.192;2023-12-22T00:09:46;97404.78;;;4.20;100.00
68634;BME280;55625;47.072;22.192;2023-12-22T00:12:12;97400.41;;;4.19;100.00
68634;BME280;55625;47.072;22.192;2023-12-22T00:14:37;97402.88;;;4.26;100.00
68634;BME280;55625;47.072;22.192;2023-12-22T00:17:06;97404.47;;;4.36;100.00
68634;BME280;55625;47.072;22.192;2023-12-22T00:19:32;97400.41;;;4.19;100.00
68634;BME280;55625;47.072;22.192;2023-12-22T00:21:58;97407.72;;;4.16;100.00
68634;BME280;55625;47.072;22.192;2023-12-22T00:24:24;97411.31;;;4.17;100.00
68634;BME280;55625;47.072;22.192;2023-12-22T00:26:50;97413.97;;;4.11;100.00
68634;BME280;55625;47.072;22.192;2023-12-22T00:29:16;97396.03;;;4.09;100.00
68634;BME280;55625;47.072;22.192;2023-12-22T00:31:42;97420.06;;;4.10;100.00
68634;BME280;55625;47.072;22.192;2023-12-22T00:34:07;97403.34;;;4.24;100.00
68634;BME280;55625;47.072;22.192;2023-12-22T00:36:33;97389.00;;;4.22;100.00
68634;BME280;55625;47.072;22.192;2023-12-22T00:38:59;97384.03;;;4.35;100.00
68634;BME280;55625;47.072;22.192;2023-12-22T00:41:25;97388.38;;;4.27;100.00
68634;BME280;55625;47.072;22.192;2023-12-22T00:43:51;97386.97;;;4.23;100.00
68634;BME280;55625;47.072;22.192;2023-12-22T00:46:17;97395.13;;;4.30;100.00
68634;BME280;55625;47.072;22.192;2023-12-22T00:48:42;97375.13;;;4.46;100.00
68634;BME280;55625;47.072;22.192;2023-12-22T00:51:08;97376.22;;;4.40;100.00
68634;BME280;55625;47.072;22.192;2023-12-22T00:53:34;97360.66;;;4.29;100.00
68634;BME280;55625;47.072;22.192;2023-12-22T00:56:00;97346.75;;;4.35;100.00
68634;BME280;55625;47.072;22.192;2023-12-22T00:58:29;97383.38;;;4.50;100.00
68634;BME280;55625;47.072;22.192;2023-12-22T01:00:55;97397.59;;;4.46;100.00
68634;BME280;55625;47.072;22.192;2023-12-22T01:03:21;97411.78;;;4.43;100.00
68634;BME280;55625;47.072;22.192;2023-12-22T01:05:48;97397.28;;;4.35;100.00
68634;BME280;55625;47.072;22.192;2023-12-22T01:08:14;97401.97;;;4.29;100.00
68634;BME280;55625;47.072;22.192;2023-12-22T01:10:39;97376.88;;;4.34;100.00
68634;BME280;55625;47.072;22.192;2023-12-22T01:13:05;97369.66;;;4.52;100.00
68634;BME280;55625;47.072;22.192;2023-12-22T01:15:31;97357.97;;;4.44;100.00
68634;BME280;55625;47.072;22.192;2023-12-22T01:17:57;97354.69;;;4.46;100.00
68634;BME280;55625;47.072;22.192;2023-12-22T01:20:23;97364.63;;;4.56;100.00
68634;BME280;55625;47.072;22.192;2023-12-22T01:22:49;97366.06;;;4.51;100.00
68634;BME280;55625;47.072;22.192;2023-12-22T01:25:15;97352.94;;;4.57;100.00
68634;BME280;55625;47.072;22.192;2023-12-22T01:27:41;97343.44;;;4.55;100.00
68634;BME280;55625;47.072;22.192;2023-12-22T01:30:07;97324.25;;;4.62;100.00
68634;BME280;55625;47.072;22.192;2023-12-22T01:32:33;97321.91;;;4.61;100.00
68634;BME280;55625;47.072;22.192;2023-12-22T01:35:02;97323.47;;;4.62;100.00
68634;BME280;55625;47.072;22.192;2023-12-22T01:37:32;97309.72;;;4.55;100.00
68634;BME280;55625;47.072;22.192;2023-12-22T01:39:58;97297.25;;;4.56;100.00
68634;BME280;55625;47.072;22.192;2023-12-22T01:42:24;97302.09;;;4.46;100.00
68634;BME280;55625;47.072;22.192;2023-12-22T01:44:50;97297.09;;;4.50;100.00
68634;BME280;55625;47.072;22.192;2023-12-22T01:47:16;97284.31;;;4.49;100.00
68634;BME280;55625;47.072;22.192;2023-12-22T01:49:42;97288.50;;;4.54;100.00
68634;BME280;55625;47.072;22.192;2023-12-22T01:52:08;97287.44;;;4.51;100.00
68634;BME280;55625;47.072;22.192;2023-12-22T01:54:35;97281.63;;;4.64;100.00
68634;BME280;55625;47.072;22.192;2023-12-22T01:57:01;97262.09;;;4.70;100.00
68634;BME280;55625;47.072;22.192;2023-12-22T01:59:28;97238.00;;;4.78;100.00
68634;BME280;55625;47.072;22.192;2023-12-22T02:01:56;97240.22;;;4.74;100.00
68634;BME280;55625;47.072;22.192;2023-12-22T02:04:23;97224.03;;;4.68;100.00
68634;BME280;55625;47.072;22.192;2023-12-22T02:06:50;97242.97;;;4.83;100.00
68634;BME280;55625;47.072;22.192;2023-12-22T02:09:16;97248.94;;;4.76;100.00
68634;BME280;55625;47.072;22.192;2023-12-22T02:11:42;97313.47;;;4.61;100.00
68634;BME280;55625;47.072;22.192;2023-12-22T02:14:08;97313.69;;;4.81;100.00
68634;BME280;55625;47.072;22.192;2023-12-22T02:16:46;97357.69;;;4.93;100.00
68634;BME280;55625;47.072;22.192;2023-12-22T02:19:45;97383.03;;;5.17;100.00
68634;BME280;55625;47.072;22.192;2023-12-22T02:22:12;97384.28;;;5.16;100.00
68634;BME280;55625;47.072;22.192;2023-12-22T02:24:39;97376.84;;;5.04;100.00
68634;BME280;55625;47.072;22.192;2023-12-22T02:27:14;97373.59;;;4.96;100.00
68634;BME280;55625;47.072;22.192;2023-12-22T02:30:10;97382.94;;;5.03;100.00
68634;BME280;55625;47.072;22.192;2023-12-22T02:32:40;97396.53;;;5.04;100.00
68634;BME280;55625;47.072;22.192;2023-12-22T02:35:14;97395.00;;;4.94;100.00
68634;BME280;55625;47.072;22.192;2023-12-22T02:37:41;97383.00;;;4.84;100.00
68634;BME280;55625;47.072;22.192;2023-12-22T02:40:08;97378.34;;;4.72;100.00
68634;BME280;55625;47.072;22.192;2023-12-22T02:42:37;97357.75;;;4.75;100.00
68634;BME280;55625;47.072;22.192;2023-12-22T02:45:05;97310.06;;;4.48;100.00
68634;BME280;55625;47.072;22.192;2023-12-22T02:47:31;97298.81;;;4.48;100.00
68634;BME280;55625;47.072;22.192;2023-12-22T02:49:59;97284.66;;;4.42;100.00
68634;BME280;55625;47.072;22.192;2023-12-22T02:52:25;97268.78;;;4.30;100.00
68634;BME280;55625;47.072;22.192;2023-12-22T02:54:51;97248.19;;;4.33;100.00
68634;BME280;55625;47.072;22.192;2023-12-22T02:57:16;97243.66;;;4.35;100.00
68634;BME280;55625;47.072;22.192;2023-12-22T02:59:43;97265.63;;;4.37;100.00
68634;BME280;55625;47.072;22.192;2023-12-22T03:02:09;97280.84;;;4.54;100.00
68634;BME280;55625;47.072;22.192;2023-12-22T03:04:34;97312.84;;;4.66;100.00
68634;BME280;55625;47.072;22.192;2023-12-22T03:07:00;97312.84;;;4.57;100.00
68634;BME280;55625;47.072;22.192;2023-12-22T03:09:26;97313.47;;;4.61;100.00
68634;BME280;55625;47.072;22.192;2023-12-22T03:11:52;97318.31;;;4.60;100.00
68634;BME280;55625;47.072;22.192;2023-12-22T03:14:20;97323.94;;;4.60;100.00
68634;BME280;55625;47.072;22.192;2023-12-22T03:16:46;97323.63;;;4.49;100.00
68634;BME280;55625;47.072;22.192;2023-12-22T03:19:11;97322.38;;;4.50;100.00
68634;BME280;55625;47.072;22.192;2023-12-22T03:21:37;97315.22;;;4.40;100.00
68634;BME280;55625;47.072;22.192;2023-12-22T03:24:03;97306.19;;;4.36;100.00
68634;BME280;55625;47.072;22.192;2023-12-22T03:26:29;97314.94;;;4.20;100.00
68634;BME280;55625;47.072;22.192;2023-12-22T03:28:55;97306.84;;;4.13;100.00
68634;BME280;55625;47.072;22.192;2023-12-22T03:31:21;97301.38;;;4.18;100.00
68634;BME280;55625;47.072;22.192;2023-12-22T03:33:47;97297.81;;;4.09;100.00
68634;BME280;55625;47.072;22.192;2023-12-22T03:36:13;97295.28;;;4.20;100.00
68634;BME280;55625;47.072;22.192;2023-12-22T03:38:39;97292.34;;;4.14;100.00
68634;BME280;55625;47.072;22.192;2023-12-22T03:41:04;97297.50;;;4.07;100.00
68634;BME280;55625;47.072;22.192;2023-12-22T03:43:30;97290.03;;;4.03;100.00
68634;BME280;55625;47.072;22.192;2023-12-22T03:45:57;97285.34;;;4.10;100.00
68634;BME280;55625;47.072;22.192;2023-12-22T03:48:23;97273.00;;;4.16;100.00
68634;BME280;55625;47.072;22.192;2023-12-22T03:50:49;97284.38;;;4.22;100.00
68634;BME280;55625;47.072;22.192;2023-12-22T03:53:14;97286.56;;;4.18;100.00
68634;BME280;55625;47.072;22.192;2023-12-22T03:55:40;97274.88;;;4.19;100.00
68634;BME280;55625;47.072;22.192;2023-12-22T03:58:06;97268.16;;;4.17;100.00
68634;BME280;55625;47.072;22.192;2023-12-22T04:00:33;97256.59;;;4.24;100.00
68634;BME280;55625;47.072;22.192;2023-12-22T04:03:00;97260.50;;;4.26;100.00
68634;BME280;55625;47.072;22.192;2023-12-22T04:05:25;97232.25;;;4.39;100.00
68634;BME280;55625;47.072;22.192;2023-12-22T04:07:51;97198.63;;;4.54;100.00
68634;BME280;55625;47.072;22.192;2023-12-22T04:10:17;97199.47;;;4.45;100.00
68634;BME280;55625;47.072;22.192;2023-12-22T04:12:44;97203.69;;;4.41;100.00
68634;BME280;55625;47.072;22.192;2023-12-22T04:15:10;97211.53;;;4.27;100.00
68634;BME280;55625;47.072;22.192;2023-12-22T04:17:36;97217.00;;;4.22;100.00
68634;BME280;55625;47.072;22.192;2023-12-22T04:20:02;97205.13;;;4.27;100.00
68634;BME280;55625;47.072;22.192;2023-12-22T04:22:28;97220.38;;;4.44;100.00
68634;BME280;55625;47.072;22.192;2023-12-22T04:24:54;97251.22;;;4.62;100.00
68634;BME280;55625;47.072;22.192;2023-12-22T04:27:20;97247.31;;;4.60;100.00
68634;BME280;55625;47.072;22.192;2023-12-22T04:29:45;97279.59;;;4.55;100.00
68634;BME280;55625;47.072;22.192;2023-12-22T04:32:11;97280.38;;;4.56;100.00
68634;BME280;55625;47.072;22.192;2023-12-22T04:34:37;97288.16;;;4.70;100.00
68634;BME280;55625;47.072;22.192;2023-12-22T04:37:03;97300.69;;;4.60;100.00
68634;BME280;55625;47.072;22.192;2023-12-22T04:39:29;97322.22;;;4.63;100.00
68634;BME280;55625;47.072;22.192;2023-12-22T04:41:55;97311.56;;;4.67;100.00
68634;BME280;55625;47.072;22.192;2023-12-22T04:44:20;97326.75;;;4.60;100.00
68634;BME280;55625;47.072;22.192;2023-12-22T04:46:46;97335.44;;;4.72;100.00
68634;BME280;55625;47.072;22.192;2023-12-22T04:49:12;97310.66;;;4.61;100.00
68634;BME280;55625;47.072;22.192;2023-12-22T04:51:38;97305.38;;;4.45;100.00
68634;BME280;55625;47.072;22.192;2023-12-22T04:54:04;97309.25;;;4.65;100.00
68634;BME280;55625;47.072;22.192;2023-12-22T04:56:30;97330.72;;;4.78;100.00
68634;BME280;55625;47.072;22.192;2023-12-22T04:58:56;97331.97;;;4.77;100.00
68634;BME280;55625;47.072;22.192;2023-12-22T05:01:21;97348.19;;;4.91;100.00
68634;BME280;55625;47.072;22.192;2023-12-22T05:03:47;97354.06;;;5.02;100.00
68634;BME280;55625;47.072;22.192;2023-12-22T05:06:13;97361.00;;;4.83;100.00
68634;BME280;55625;47.072;22.192;2023-12-22T05:08:39;97359.69;;;5.02;100.00
68634;BME280;55625;47.072;22.192;2023-12-22T05:11:05;97354.72;;;4.88;100.00
68634;BME280;55625;47.072;22.192;2023-12-22T05:13:31;97343.66;;;4.84;100.00
68634;BME280;55625;47.072;22.192;2023-12-22T05:15:57;97346.78;;;4.86;100.00
68634;BME280;55625;47.072;22.192;2023-12-22T05:18:24;97335.59;;;4.68;100.00
68634;BME280;55625;47.072;22.192;2023-12-22T05:20:50;97354.78;;;4.70;100.00
68634;BME280;55625;47.072;22.192;2023-12-22T05:23:16;97357.91;;;4.72;100.00
68634;BME280;55625;47.072;22.192;2023-12-22T05:25:42;97353.25;;;4.68;100.00
68634;BME280;55625;47.072;22.192;2023-12-22T05:28:07;97355.75;;;4.66;100.00
68634;BME280;55625;47.072;22.192;2023-12-22T05:30:33;97356.03;;;4.68;100.00
68634;BME280;55625;47.072;22.192;2023-12-22T05:32:59;97346.97;;;4.74;100.00
68634;BME280;55625;47.072;22.192;2023-12-22T05:35:25;97351.81;;;4.73;100.00
68634;BME280;55625;47.072;22.192;2023-12-22T05:37:51;97366.94;;;4.76;100.00
68634;BME280;55625;47.072;22.192;2023-12-22T05:40:17;97356.97;;;4.75;100.00
68634;BME280;55625;47.072;22.192;2023-12-22T05:42:43;97366.31;;;4.81;100.00
68634;BME280;55625;47.072;22.192;2023-12-22T05:45:09;97371.75;;;4.84;100.00
68634;BME280;55625;47.072;22.192;2023-12-22T05:47:37;97375.03;;;4.83;100.00
68634;BME280;55625;47.072;22.192;2023-12-22T05:50:04;97383.81;;;4.76;100.00
68634;BME280;55625;47.072;22.192;2023-12-22T05:52:30;97385.66;;;4.79;100.00
68634;BME280;55625;47.072;22.192;2023-12-22T05:54:56;97391.75;;;4.77;100.00
68634;BME280;55625;47.072;22.192;2023-12-22T05:57:21;97389.25;;;4.79;100.00
68634;BME280;55625;47.072;22.192;2023-12-22T06:12:38;97405.41;;;4.42;100.00
68634;BME280;55625;47.072;22.192;2023-12-22T06:15:05;97407.72;;;4.44;100.00
68634;BME280;55625;47.072;22.192;2023-12-22T06:17:31;97408.84;;;4.37;100.00
68634;BME280;55625;47.072;22.192;2023-12-22T06:19:57;97406.97;;;4.34;100.00
68634;BME280;55625;47.072;22.192;2023-12-22T06:22:23;97409.16;;;4.39;100.00
68634;BME280;55625;47.072;22.192;2023-12-22T06:24:49;97431.13;;;4.50;100.00
68634;BME280;55625;47.072;22.192;2023-12-22T06:27:15;97441.75;;;4.46;100.00
68634;BME280;55625;47.072;22.192;2023-12-22T06:29:41;97432.06;;;4.28;100.00
68634;BME280;55625;47.072;22.192;2023-12-22T06:32:07;97436.59;;;4.17;100.00
68634;BME280;55625;47.072;22.192;2023-12-22T06:34:33;97447.97;;;4.22;100.00
68634;BME280;55625;47.072;22.192;2023-12-22T06:36:59;97456.84;;;4.12;100.00
68634;BME280;55625;47.072;22.192;2023-12-22T06:39:25;97463.09;;;4.07;100.00
68634;BME280;55625;47.072;22.192;2023-12-22T06:41:51;97460.59;;;3.99;100.00
68634;BME280;55625;47.072;22.192;2023-12-22T06:44:16;97471.16;;;3.95;100.00
68634;BME280;55625;47.072;22.192;2023-12-22T06:46:42;97465.22;;;3.84;100.00
68634;BME280;55625;47.072;22.192;2023-12-22T06:49:08;97468.94;;;3.72;100.00
68634;BME280;55625;47.072;22.192;2023-12-22T06:51:34;97471.69;;;3.63;100.00
68634;BME280;55625;47.072;22.192;2023-12-22T06:54:04;97473.06;;;3.49;100.00
68634;BME280;55625;47.072;22.192;2023-12-22T06:56:35;97469.78;;;3.51;100.00
68634;BME280;55625;47.072;22.192;2023-12-22T06:59:01;97478.81;;;3.46;100.00
68634;BME280;55625;47.072;22.192;2023-12-22T07:03:55;97502.47;;;3.45;100.00
68634;BME280;55625;47.072;22.192;2023-12-22T07:06:22;97515.84;;;3.40;100.00
68634;BME280;55625;47.072;22.192;2023-12-22T07:11:47;97531.56;;;3.38;100.00
68634;BME280;55625;47.072;22.192;2023-12-22T07:14:13;97527.63;;;3.35;100.00
68634;BME280;55625;47.072;22.192;2023-12-22T07:16:39;97533.59;;;3.37;100.00
68634;BME280;55625;47.072;22.192;2023-12-22T07:19:05;97532.25;;;3.51;100.00
68634;BME280;55625;47.072;22.192;2023-12-22T07:21:31;97543.81;;;3.62;100.00
68634;BME280;55625;47.072;22.192;2023-12-22T07:23:57;97545.91;;;3.71;100.00
68634;BME280;55625;47.072;22.192;2023-12-22T07:26:26;97553.28;;;3.87;100.00
68634;BME280;55625;47.072;22.192;2023-12-22T07:28:55;97553.44;;;3.83;100.00
68634;BME280;55625;47.072;22.192;2023-12-22T07:31:21;97559.22;;;3.98;100.00
68634;BME280;55625;47.072;22.192;2023-12-22T07:33:47;97563.94;;;4.01;100.00
68634;BME280;55625;47.072;22.192;2023-12-22T07:36:14;97562.56;;;4.05;100.00
68634;BME280;55625;47.072;22.192;2023-12-22T07:38:40;97575.81;;;4.05;100.00
68634;BME280;55625;47.072;22.192;2023-12-22T07:41:06;97575.34;;;4.07;100.00
68634;BME280;55625;47.072;22.192;2023-12-22T07:43:32;97576.94;;;4.17;100.00
68634;BME280;55625;47.072;22.192;2023-12-22T07:45:58;97575.50;;;4.12;100.00
68634;BME280;55625;47.072;22.192;2023-12-22T07:48:24;97570.38;;;4.20;100.00
68634;BME280;55625;47.072;22.192;2023-12-22T07:50:50;97573.47;;;4.13;100.00
68634;BME280;55625;47.072;22.192;2023-12-22T07:53:16;97570.88;;;4.27;100.00
68634;BME280;55625;47.072;22.192;2023-12-22T07:55:43;97569.78;;;4.25;100.00
68634;BME280;55625;47.072;22.192;2023-12-22T07:58:09;97573.41;;;4.34;100.00
68634;BME280;55625;47.072;22.192;2023-12-22T08:00:36;97575.28;;;4.38;100.00
68634;BME280;55625;47.072;22.192;2023-12-22T08:03:03;97570.44;;;4.47;100.00
68634;BME280;55625;47.072;22.192;2023-12-22T08:05:29;97558.28;;;4.41;100.00
68634;BME280;55625;47.072;22.192;2023-12-22T08:07:56;97555.16;;;4.39;100.00
68634;BME280;55625;47.072;22.192;2023-12-22T08:10:22;97566.72;;;4.50;100.00
68634;BME280;55625;47.072;22.192;2023-12-22T08:12:48;97563.44;;;4.52;100.00
68634;BME280;55625;47.072;22.192;2023-12-22T08:15:14;97563.91;;;4.50;100.00
68634;BME280;55625;47.072;22.192;2023-12-22T08:17:50;97566.88;;;4.56;100.00
68634;BME280;55625;47.072;22.192;2023-12-22T08:20:21;97583.75;;;4.65;100.00
68634;BME280;55625;47.072;22.192;2023-12-22T08:22:48;97589.53;;;4.71;100.00
68634;BME280;55625;47.072;22.192;2023-12-22T08:25:14;97589.06;;;4.72;100.00
68634;BME280;55625;47.072;22.192;2023-12-22T08:27:41;97586.41;;;4.78;100.00
68634;BME280;55625;47.072;22.192;2023-12-22T08:30:11;97586.88;;;4.85;100.00
68634;BME280;55625;47.072;22.192;2023-12-22T08:32:38;97587.84;;;4.91;100.00
68634;BME280;55625;47.072;22.192;2023-12-22T08:35:05;97600.00;;;5.07;100.00
68634;BME280;55625;47.072;22.192;2023-12-22T08:37:31;97601.25;;;5.06;100.00
68634;BME280;55625;47.072;22.192;2023-12-22T08:39:57;97598.91;;;5.13;100.00
68634;BME280;55625;47.072;22.192;2023-12-22T08:42:26;97598.28;;;5.27;100.00
68634;BME280;55625;47.072;22.192;2023-12-22T08:44:54;97606.09;;;5.23;100.00
68634;BME280;55625;47.072;22.192;2023-12-22T08:47:20;97608.44;;;5.34;100.00
68634;BME280;55625;47.072;22.192;2023-12-22T08:49:46;97594.81;;;5.42;100.00
68634;BME280;55625;47.072;22.192;2023-12-22T08:52:11;97597.59;;;5.51;100.00
68634;BME280;55625;47.072;22.192;2023-12-22T08:54:39;97601.06;;;5.55;100.00
68634;BME280;55625;47.072;22.192;2023-12-22T08:57:05;97603.50;;;5.71;98.93
68634;BME280;55625;47.072;22.192;2023-12-22T08:59:31;97605.03;;;5.81;100.00
68634;BME280;55625;47.072;22.192;2023-12-22T09:01:56;97598.94;;;5.92;98.13
68634;BME280;55625;47.072;22.192;2023-12-22T09:04:22;97607.84;;;6.00;96.22
68634;BME280;55625;47.072;22.192;2023-12-22T09:06:49;97620.19;;;6.02;96.10
68634;BME280;55625;47.072;22.192;2023-12-22T09:09:16;97614.97;;;6.10;95.53
68634;BME280;55625;47.072;22.192;2023-12-22T09:11:42;97612.94;;;6.19;92.50
68634;BME280;55625;47.072;22.192;2023-12-22T09:14:08;97620.63;;;6.10;93.15
68634;BME280;55625;47.072;22.192;2023-12-22T09:16:36;97617.59;;;6.22;92.93
68634;BME280;55625;47.072;22.192;2023-12-22T09:19:02;97626.53;;;6.21;92.23
68634;BME280;55625;47.072;22.192;2023-12-22T09:21:28;97609.47;;;6.25;89.49
68634;BME280;55625;47.072;22.192;2023-12-22T09:23:54;97634.63;;;6.28;90.70
68634;BME280;55625;47.072;22.192;2023-12-22T09:26:20;97635.25;;;6.32;91.18
68634;BME280;55625;47.072;22.192;2023-12-22T09:28:47;97624.09;;;6.38;90.78
68634;BME280;55625;47.072;22.192;2023-12-22T09:31:13;97644.28;;;6.45;89.24
68634;BME280;55625;47.072;22.192;2023-12-22T09:33:40;97649.25;;;6.50;89.39
68634;BME280;55625;47.072;22.192;2023-12-22T09:36:07;97644.53;;;6.57;89.36
68634;BME280;55625;47.072;22.192;2023-12-22T09:38:33;97637.25;;;6.65;90.12
68634;BME280;55625;47.072;22.192;2023-12-22T09:40:59;97648.84;;;6.67;88.85
68634;BME280;55625;47.072;22.192;2023-12-22T09:43:26;97642.06;;;6.73;87.62
68634;BME280;55625;47.072;22.192;2023-12-22T09:45:52;97642.69;;;6.77;87.78
68634;BME280;55625;47.072;22.192;2023-12-22T09:48:18;97635.13;;;6.83;89.06
68634;BME280;55625;47.072;22.192;2023-12-22T09:50:53;97643.03;;;6.94;87.77
68634;BME280;55625;47.072;22.192;2023-12-22T09:53:23;97659.28;;;6.99;87.14
68634;BME280;55625;47.072;22.192;2023-12-22T09:55:50;97643.28;;;6.81;86.91
68634;BME280;55625;47.072;22.192;2023-12-22T09:58:17;97650.00;;;6.84;87.82
68634;BME280;55625;47.072;22.192;2023-12-22T10:00:43;97643.88;;;6.85;88.35
68634;BME280;55625;47.072;22.192;2023-12-22T10:03:11;97647.84;;;6.79;87.53
68634;BME280;55625;47.072;22.192;2023-12-22T10:05:40;97647.19;;;6.84;88.80
68634;BME280;55625;47.072;22.192;2023-12-22T10:08:06;97650.31;;;6.86;87.96
68634;BME280;55625;47.072;22.192;2023-12-22T10:10:32;97643.22;;;6.91;84.57
68634;BME280;55625;47.072;22.192;2023-12-22T10:12:59;97653.66;;;6.99;87.96
68634;BME280;55625;47.072;22.192;2023-12-22T10:15:30;97647.72;;;7.21;85.79
68634;BME280;55625;47.072;22.192;2023-12-22T10:17:56;97644.94;;;7.36;87.59
68634;BME280;55625;47.072;22.192;2023-12-22T10:20:22;97644.75;;;7.39;81.59
68634;BME280;55625;47.072;22.192;2023-12-22T10:22:48;97642.47;;;7.29;85.13
68634;BME280;55625;47.072;22.192;2023-12-22T10:25:24;97638.88;;;7.28;83.79
68634;BME280;55625;47.072;22.192;2023-12-22T10:27:52;97642.34;;;7.23;85.26
68634;BME280;55625;47.072;22.192;2023-12-22T10:30:19;97642.16;;;7.12;85.34
68634;BME280;55625;47.072;22.192;2023-12-22T10:32:46;97639.13;;;7.15;83.77
68634;BME280;55625;47.072;22.192;2023-12-22T10:35:11;97622.44;;;7.03;82.31
68634;BME280;55625;47.072;22.192;2023-12-22T10:37:38;97629.13;;;6.91;85.01
68634;BME280;55625;47.072;22.192;2023-12-22T10:40:05;97622.41;;;6.88;86.16
68634;BME280;55625;47.072;22.192;2023-12-22T10:42:32;97626.91;;;6.95;84.06
68634;BME280;55625;47.072;22.192;2023-12-22T10:44:58;97626.78;;;7.13;81.50
68634;BME280;55625;47.072;22.192;2023-12-22T10:47:24;97620.56;;;7.24;83.26
68634;BME280;55625;47.072;22.192;2023-12-22T10:49:51;97619.22;;;7.34;80.84
68634;BME280;55625;47.072;22.192;2023-12-22T10:52:18;97629.50;;;7.22;81.74
68634;BME280;55625;47.072;22.192;2023-12-22T10:54:44;97628.16;;;7.18;83.17
68634;BME280;55625;47.072;22.192;2023-12-22T10:57:11;97626.09;;;7.18;81.43
68634;BME280;55625;47.072;22.192;2023-12-22T10:59:45;97619.19;;;7.04;84.54
68634;BME280;55625;47.072;22.192;2023-12-22T11:02:17;97621.66;;;7.02;84.01
68634;BME280;55625;47.072;22.192;2023-12-22T11:05:06;97616.88;;;7.18;84.53
68634;BME280;55625;47.072;22.192;2023-12-22T11:07:36;97615.91;;;7.21;82.66
68634;BME280;55625;47.072;22.192;2023-12-22T11:10:07;97618.41;;;7.19;83.91
68634;BME280;55625;47.072;22.192;2023-12-22T11:12:37;97620.75;;;7.20;83.50
68634;BME280;55625;47.072;22.192;2023-12-22T11:15:04;97622.88;;;7.10;84.55
68634;BME280;55625;47.072;22.192;2023-12-22T11:17:35;97615.53;;;7.04;83.51
68634;BME280;55625;47.072;22.192;2023-12-22T11:20:06;97607.28;;;7.00;81.96
68634;BME280;55625;47.072;22.192;2023-12-22T11:22:36;97608.59;;;6.90;82.86
68634;BME280;55625;47.072;22.192;2023-12-22T11:25:03;97604.34;;;6.95;85.78
68634;BME280;55625;47.072;22.192;2023-12-22T11:27:33;97609.75;;;6.83;83.05
68634;BME280;55625;47.072;22.192;2023-12-22T11:30:01;97601.88;;;6.88;85.48
68634;BME280;55625;47.072;22.192;2023-12-22T11:32:29;97613.34;;;6.84;84.92
68634;BME280;55625;47.072;22.192;2023-12-22T11:34:55;97612.31;;;6.72;85.35
68634;BME280;55625;47.072;22.192;2023-12-22T11:37:22;97617.19;;;6.72;81.67
68634;BME280;55625;47.072;22.192;2023-12-22T11:39:48;97608.31;;;6.64;82.40
68634;BME280;55625;47.072;22.192;2023-12-22T11:42:30;97619.88;;;6.66;84.71
68634;BME280;55625;47.072;22.192;2023-12-22T11:45:03;97612.50;;;6.69;83.32
68634;BME280;55625;47.072;22.192;2023-12-22T11:47:29;97612.88;;;6.62;83.80
68634;BME280;55625;47.072;22.192;2023-12-22T11:49:56;97605.13;;;6.71;85.19
68634;BME280;55625;47.072;22.192;2023-12-22T11:52:26;97607.31;;;6.76;84.68
68634;BME280;55625;47.072;22.192;2023-12-22T11:54:55;97594.31;;;6.94;81.25
68634;BME280;55625;47.072;22.192;2023-12-22T11:57:35;97597.53;;;6.87;78.74
68634;BME280;55625;47.072;22.192;2023-12-22T12:02:55;97603.22;;;6.53;83.64
68634;BME280;55625;47.072;22.192;2023-12-22T12:05:21;97606.94;;;6.60;84.16
68634;BME280;55625;47.072;22.192;2023-12-22T12:07:48;97609.94;;;6.56;82.59
68634;BME280;55625;47.072;22.192;2023-12-22T12:13:11;97602.06;;;6.60;80.41
68634;BME280;55625;47.072;22.192;2023-12-22T12:15:38;97608.19;;;6.59;78.94
68634;BME280;55625;47.072;22.192;2023-12-22T12:18:09;97620.13;;;6.53;80.55
68634;BME280;55625;47.072;22.192;2023-12-22T12:20:35;97625.06;;;6.35;81.72
68634;BME280;55625;47.072;22.192;2023-12-22T12:23:02;97613.91;;;6.40;80.24
68634;BME280;55625;47.072;22.192;2023-12-22T12:25:29;97611.16;;;6.31;79.64
68634;BME280;55625;47.072;22.192;2023-12-22T12:28:06;97619.94;;;6.24;78.53
68634;BME280;55625;47.072;22.192;2023-12-22T12:30:36;97617.44;;;6.26;78.50
68634;BME280;55625;47.072;22.192;2023-12-22T12:33:14;97628.09;;;6.22;77.49
68634;BME280;55625;47.072;22.192;2023-12-22T12:35:41;97629.47;;;6.27;77.52
68634;BME280;55625;47.072;22.192;2023-12-22T12:38:10;97622.84;;;6.39;76.14
68634;BME280;55625;47.072;22.192;2023-12-22T12:40:40;97616.56;;;6.44;75.81
68634;BME280;55625;47.072;22.192;2023-12-22T12:43:06;97615.16;;;6.39;75.34
68634;BME280;55625;47.072;22.192;2023-12-22T12:45:32;97624.84;;;6.47;75.69
68634;BME280;55625;47.072;22.192;2023-12-22T12:47:59;97616.56;;;6.44;75.58
68634;BME280;55625;47.072;22.192;2023-12-22T12:50:26;97625.16;;;6.49;74.83
68634;BME280;55625;47.072;22.192;2023-12-22T12:52:55;97618.75;;;6.40;75.54
68634;BME280;55625;47.072;22.192;2023-12-22T12:55:22;97615.53;;;6.32;75.80
68634;BME280;55625;47.072;22.192;2023-12-22T12:57:55;97614.75;;;6.32;78.47
68634;BME280;55625;47.072;22.192;2023-12-22T13:00:34;97616.81;;;6.22;80.13
68634;BME280;55625;47.072;22.192;2023-12-22T13:03:05;97617.66;;;6.04;82.11
68634;BME280;55625;47.072;22.192;2023-12-22T13:05:32;97620.00;;;6.06;82.08
68634;BME280;55625;47.072;22.192;2023-12-22T13:08:12;97615.19;;;5.88;83.67
68634;BME280;55625;47.072;22.192;2023-12-22T13:10:40;97624.41;;;5.98;83.88
68634;BME280;55625;47.072;22.192;2023-12-22T13:13:06;97616.63;;;5.83;84.75
68634;BME280;55625;47.072;22.192;2023-12-22T13:15:32;97615.06;;;5.82;85.23